Edgewood, Minnesota
Current Conditions -  °F | °C
As of 8:35 AM on Saturday 25 Oct 2014 (Local Time) from KCBG Reporting Station
Clear Clear  
Wind Chill: 52°   Ceiling: Unl
Heat Index: 52°   Visibility: 10mi
Dew Point: 36°   Wind: 7mph
Humidity: 54%   Direction: 290°WNW
Pressure: 29.99"   Gusts: NA
Location:  45.5649°N, 93.3413°W
Report Text: KCBG 251335Z AUTO 29006KT 10SM CLR 11/02 A2999 RMK AO2
Loading
Personal Weather Stations






























Interactive Weather Map
Tropical Storm Tracking
New forecast layout! Learn more

10-Day Weather Forecast

Advertisements
Track Severe Weather on mobile